Terminal Aerodrome Forecast
Issued by NWS

Home | Current Version | Previous Version | Text Only | Print | Product List | Glossary On
Versions: 1 2 3 4 5 6 7 8 9 10 11 12 13 14 15 16 17 18 19 20 21 22
000
FTUS42 KGSP 240526
TAFGMU
TAF
KGMU 240526Z 2406/2506 23011KT P6SM VCSH OVC025
     FM240900 24007KT P6SM VCSH BKN015
     FM241500 24006KT P6SM BKN035 PROB30 2415/2419 4SM -TSRA
      OVC025CB
     FM241900 25005KT P6SM -SHRA VCTS BKN035CB
     FM242200 25004KT P6SM BKN040 PROB30 2422/2424 4SM -TSRA
      OVC025CB=

USA.gov is the U.S. government's official web portal to all federal, state and local government web resources and services.